RYR64YL EDDK-LOWW
Flight info
| Callsign | RYR64YL |
|---|---|
| Flight time | 1h 13m |
| Altitude | 35000 |
| Route | KUMIK6D KUMIK L603 TESGA DCT ESATI DCT BOREP DCT ENITA DCT ETVIS DCT BUDEX BUDEX2W |
| Aircraft | B738/M-SDE2E3FGHIRWXY/LB1 |
Departure
| Time | 2026-04-25 21:43 |
|---|---|
| Airport | Cologne Bonn Airport (EDDK) |
Arrival
| Time | 2026-04-25 22:57 |
|---|---|
| Airport | Vienna International Airport (LOWW) |
| Time | Latitude | Longitude | Altitude | Speed | Heading |
|---|---|---|---|---|---|
| 2026-04-25 21:03 | 50.87833 | 7.12457 | 231 ft | 0 kts | 288° |
| 2026-04-25 21:32 | 50.87832 | 7.12466 | 233 ft | 4 kts | 288° |
| 2026-04-25 21:32 | 50.87823 | 7.12506 | 233 ft | 4 kts | 295° |
| 2026-04-25 21:33 | 50.87809 | 7.12541 | 232 ft | 4 kts | 319° |
| 2026-04-25 21:33 | 50.87788 | 7.12559 | 233 ft | 4 kts | 5° |
| 2026-04-25 21:33 | 50.87776 | 7.12555 | 234 ft | 1 kts | 18° |
| 2026-04-25 21:33 | 50.87775 | 7.12555 | 234 ft | 0 kts | 18° |
| 2026-04-25 21:37 | 50.87777 | 7.12555 | 234 ft | 1 kts | 18° |
| 2026-04-25 21:37 | 50.87784 | 7.12559 | 234 ft | 2 kts | 18° |
| 2026-04-25 21:37 | 50.87805 | 7.12570 | 231 ft | 2 kts | 18° |
| 2026-04-25 21:37 | 50.87820 | 7.12577 | 231 ft | 2 kts | 18° |
| 2026-04-25 21:38 | 50.87842 | 7.12589 | 231 ft | 5 kts | 18° |
| 2026-04-25 21:38 | 50.87888 | 7.12612 | 231 ft | 8 kts | 17° |
| 2026-04-25 21:38 | 50.87938 | 7.12647 | 233 ft | 8 kts | 33° |
| 2026-04-25 21:38 | 50.87978 | 7.12703 | 234 ft | 8 kts | 52° |
| 2026-04-25 21:39 | 50.87994 | 7.12747 | 235 ft | 0 kts | 66° |
| 2026-04-25 21:41 | 50.87994 | 7.12749 | 235 ft | 1 kts | 66° |
| 2026-04-25 21:42 | 50.88001 | 7.12777 | 238 ft | 1 kts | 70° |
| 2026-04-25 21:42 | 50.88008 | 7.12851 | 238 ft | 13 kts | 88° |
| 2026-04-25 21:42 | 50.87953 | 7.13045 | 238 ft | 26 kts | 136° |
| 2026-04-25 21:42 | 50.87696 | 7.13419 | 238 ft | 83 kts | 137° |
| 2026-04-25 21:43 | 50.87107 | 7.14271 | 250 ft | 143 kts | 137° |
| 2026-04-25 21:43 | 50.86271 | 7.15502 | 452 ft | 175 kts | 137° |
| 2026-04-25 21:43 | 50.85395 | 7.16754 | 1342 ft | 166 kts | 136° |
| 2026-04-25 21:43 | 50.84474 | 7.18043 | 1846 ft | 183 kts | 136° |
| 2026-04-25 21:44 | 50.83468 | 7.19434 | 2220 ft | 207 kts | 137° |
| 2026-04-25 21:44 | 50.82354 | 7.20998 | 2710 ft | 214 kts | 137° |
| 2026-04-25 21:44 | 50.81030 | 7.25265 | 3450 ft | 239 kts | 90° |
| 2026-04-25 21:45 | 50.80971 | 7.27074 | 3541 ft | 258 kts | 91° |
| 2026-04-25 21:45 | 50.80832 | 7.29999 | 4050 ft | 269 kts | 92° |
| 2026-04-25 21:45 | 50.80594 | 7.33867 | 5232 ft | 269 kts | 94° |
| 2026-04-25 21:45 | 50.80342 | 7.36864 | 5770 ft | 279 kts | 95° |
| 2026-04-25 21:46 | 50.80075 | 7.39913 | 6563 ft | 281 kts | 94° |
| 2026-04-25 21:46 | 50.79822 | 7.42977 | 7318 ft | 282 kts | 95° |
| 2026-04-25 21:46 | 50.79554 | 7.46087 | 7936 ft | 289 kts | 95° |
| 2026-04-25 21:46 | 50.79274 | 7.49245 | 8635 ft | 292 kts | 95° |
| 2026-04-25 21:47 | 50.78992 | 7.52426 | 9345 ft | 295 kts | 95° |
| 2026-04-25 21:47 | 50.78706 | 7.55672 | 10006 ft | 300 kts | 95° |
| 2026-04-25 21:47 | 50.78432 | 7.58971 | 10533 ft | 309 kts | 92° |
| 2026-04-25 21:47 | 50.78570 | 7.62436 | 10677 ft | 327 kts | 77° |
| 2026-04-25 21:48 | 50.79007 | 7.66080 | 10845 ft | 347 kts | 76° |
| 2026-04-25 21:48 | 50.79482 | 7.69928 | 11034 ft | 365 kts | 76° |
| 2026-04-25 21:48 | 50.79959 | 7.73914 | 11504 ft | 373 kts | 77° |
| 2026-04-25 21:48 | 50.80427 | 7.77962 | 12115 ft | 377 kts | 77° |
| 2026-04-25 21:49 | 50.80888 | 7.82063 | 12731 ft | 380 kts | 77° |
| 2026-04-25 21:49 | 50.81347 | 7.86198 | 13377 ft | 384 kts | 77° |
| 2026-04-25 21:49 | 50.81809 | 7.90392 | 14009 ft | 389 kts | 77° |
| 2026-04-25 21:49 | 50.82274 | 7.94623 | 14606 ft | 392 kts | 77° |
| 2026-04-25 21:50 | 50.82744 | 7.98886 | 15273 ft | 394 kts | 77° |
| 2026-04-25 21:50 | 50.83213 | 8.03185 | 15882 ft | 400 kts | 80° |
| 2026-04-25 21:50 | 50.83073 | 8.07629 | 16408 ft | 412 kts | 102° |
| 2026-04-25 21:50 | 50.82424 | 8.10461 | 16853 ft | 416 kts | 116° |
| 2026-04-25 21:51 | 50.80339 | 8.15580 | 17710 ft | 421 kts | 123° |
| 2026-04-25 21:51 | 50.78662 | 8.19401 | 18250 ft | 426 kts | 123° |
| 2026-04-25 21:51 | 50.76971 | 8.23273 | 18766 ft | 430 kts | 123° |
| 2026-04-25 21:51 | 50.75284 | 8.27195 | 19285 ft | 433 kts | 123° |
| 2026-04-25 21:52 | 50.73602 | 8.31148 | 19800 ft | 436 kts | 122° |
| 2026-04-25 21:52 | 50.71908 | 8.35135 | 20303 ft | 439 kts | 123° |
| 2026-04-25 21:52 | 50.70184 | 8.39141 | 20788 ft | 442 kts | 123° |
| 2026-04-25 21:52 | 50.68443 | 8.43158 | 21269 ft | 446 kts | 123° |
| 2026-04-25 21:53 | 50.66679 | 8.47212 | 21780 ft | 449 kts | 123° |
| 2026-04-25 21:53 | 50.64908 | 8.51268 | 22260 ft | 451 kts | 123° |
| 2026-04-25 21:53 | 50.63121 | 8.55356 | 22727 ft | 454 kts | 123° |
| 2026-04-25 21:53 | 50.61319 | 8.59476 | 23177 ft | 458 kts | 123° |
| 2026-04-25 21:54 | 50.59676 | 8.63803 | 23509 ft | 462 kts | 115° |
| 2026-04-25 21:54 | 50.58264 | 8.68353 | 23873 ft | 465 kts | 113° |
| 2026-04-25 21:54 | 50.56920 | 8.72946 | 24238 ft | 467 kts | 113° |
| 2026-04-25 21:54 | 50.55565 | 8.77613 | 24615 ft | 469 kts | 113° |
| 2026-04-25 21:55 | 50.54191 | 8.82286 | 24962 ft | 472 kts | 113° |
| 2026-04-25 21:55 | 50.52786 | 8.86979 | 25280 ft | 475 kts | 114° |
| 2026-04-25 21:55 | 50.51354 | 8.91686 | 25605 ft | 478 kts | 114° |
| 2026-04-25 21:55 | 50.49903 | 8.96401 | 25960 ft | 480 kts | 114° |
| 2026-04-25 21:56 | 50.48442 | 9.01116 | 26286 ft | 482 kts | 115° |
| 2026-04-25 21:56 | 50.47466 | 9.04255 | 26497 ft | 484 kts | 115° |
| 2026-04-25 21:56 | 50.45480 | 9.10625 | 26919 ft | 487 kts | 115° |
| 2026-04-25 21:56 | 50.43986 | 9.15410 | 27224 ft | 489 kts | 115° |
| 2026-04-25 21:57 | 50.42485 | 9.20211 | 27542 ft | 491 kts | 115° |
| 2026-04-25 21:57 | 50.40994 | 9.24972 | 27840 ft | 494 kts | 115° |
| 2026-04-25 21:57 | 50.39474 | 9.29816 | 28121 ft | 496 kts | 115° |
| 2026-04-25 21:57 | 50.37945 | 9.34686 | 28346 ft | 499 kts | 115° |
| 2026-04-25 21:58 | 50.36406 | 9.39576 | 28632 ft | 501 kts | 115° |
| 2026-04-25 21:58 | 50.34860 | 9.44476 | 29025 ft | 501 kts | 115° |
| 2026-04-25 21:58 | 50.33314 | 9.49364 | 29475 ft | 499 kts | 115° |
| 2026-04-25 21:58 | 50.31774 | 9.54227 | 29906 ft | 498 kts | 115° |
| 2026-04-25 21:59 | 50.30254 | 9.59078 | 30277 ft | 497 kts | 112° |
| 2026-04-25 21:59 | 50.29049 | 9.64136 | 30579 ft | 495 kts | 105° |
| 2026-04-25 21:59 | 50.28055 | 9.69278 | 30936 ft | 493 kts | 104° |
| 2026-04-25 22:00 | 50.26159 | 9.79568 | 31557 ft | 493 kts | 104° |
| 2026-04-25 22:00 | 50.25195 | 9.84726 | 31867 ft | 493 kts | 104° |
| 2026-04-25 22:00 | 50.24215 | 9.89857 | 32247 ft | 491 kts | 104° |
| 2026-04-25 22:00 | 50.23225 | 9.94957 | 32609 ft | 489 kts | 104° |
| 2026-04-25 22:01 | 50.22230 | 10.00023 | 32928 ft | 489 kts | 105° |
| 2026-04-25 22:01 | 50.21227 | 10.05093 | 33219 ft | 488 kts | 105° |
| 2026-04-25 22:01 | 50.20221 | 10.10150 | 33545 ft | 487 kts | 105° |
| 2026-04-25 22:01 | 50.19896 | 10.11785 | 33656 ft | 487 kts | 105° |
| 2026-04-25 22:02 | 50.18226 | 10.20156 | 34189 ft | 485 kts | 105° |
| 2026-04-25 22:02 | 50.17548 | 10.23544 | 34365 ft | 484 kts | 105° |
| 2026-04-25 22:02 | 50.16221 | 10.30168 | 34708 ft | 483 kts | 105° |
| 2026-04-25 22:02 | 50.15216 | 10.35172 | 34918 ft | 483 kts | 105° |
| 2026-04-25 22:03 | 50.14208 | 10.40175 | 35119 ft | 484 kts | 105° |
| 2026-04-25 22:03 | 50.13529 | 10.43545 | 35125 ft | 487 kts | 105° |
| 2026-04-25 22:03 | 50.11495 | 10.53594 | 35128 ft | 488 kts | 105° |
| 2026-04-25 22:04 | 50.09443 | 10.63678 | 35121 ft | 483 kts | 105° |
| 2026-04-25 22:04 | 50.07422 | 10.73551 | 35129 ft | 481 kts | 105° |
| 2026-04-25 22:05 | 50.05382 | 10.83475 | 35120 ft | 480 kts | 105° |
| 2026-04-25 22:05 | 50.03341 | 10.93354 | 35118 ft | 480 kts | 105° |
| 2026-04-25 22:06 | 50.01291 | 11.03231 | 35133 ft | 480 kts | 105° |
| 2026-04-25 22:06 | 49.99225 | 11.13135 | 35129 ft | 482 kts | 105° |
| 2026-04-25 22:07 | 49.97497 | 11.21381 | 35116 ft | 483 kts | 105° |
| 2026-04-25 22:07 | 49.95049 | 11.33003 | 35119 ft | 485 kts | 105° |
| 2026-04-25 22:08 | 49.92938 | 11.42972 | 35126 ft | 486 kts | 105° |
| 2026-04-25 22:08 | 49.90826 | 11.52896 | 35110 ft | 488 kts | 105° |
| 2026-04-25 22:09 | 49.88686 | 11.62903 | 35104 ft | 489 kts | 105° |
| 2026-04-25 22:09 | 49.86532 | 11.72928 | 35091 ft | 490 kts | 105° |
| 2026-04-25 22:10 | 49.84371 | 11.82935 | 35088 ft | 490 kts | 105° |
| 2026-04-25 22:10 | 49.82212 | 11.92884 | 35086 ft | 490 kts | 105° |
| 2026-04-25 22:11 | 49.80019 | 12.02939 | 35083 ft | 489 kts | 105° |
| 2026-04-25 22:11 | 49.77849 | 12.12842 | 35070 ft | 489 kts | 105° |
| 2026-04-25 22:12 | 49.75659 | 12.22791 | 35088 ft | 487 kts | 106° |
| 2026-04-25 22:12 | 49.73823 | 12.31100 | 35096 ft | 488 kts | 106° |
| 2026-04-25 22:13 | 49.71261 | 12.42644 | 35091 ft | 488 kts | 106° |
| 2026-04-25 22:13 | 49.69320 | 12.52678 | 35088 ft | 485 kts | 98° |
| 2026-04-25 22:14 | 49.67999 | 12.62910 | 35082 ft | 486 kts | 97° |
| 2026-04-25 22:14 | 49.66630 | 12.73076 | 35096 ft | 487 kts | 98° |
| 2026-04-25 22:15 | 49.64577 | 12.83090 | 35089 ft | 494 kts | 113° |
| 2026-04-25 22:16 | 49.58861 | 12.96387 | 35082 ft | 498 kts | 124° |
| 2026-04-25 22:16 | 49.54818 | 13.05056 | 35078 ft | 498 kts | 124° |
| 2026-04-25 22:17 | 49.50813 | 13.13751 | 35081 ft | 498 kts | 123° |
| 2026-04-25 22:17 | 49.46825 | 13.22459 | 35072 ft | 497 kts | 123° |
| 2026-04-25 22:18 | 49.42838 | 13.31151 | 35076 ft | 497 kts | 124° |
| 2026-04-25 22:18 | 49.38879 | 13.39748 | 35070 ft | 495 kts | 124° |
| 2026-04-25 22:19 | 49.34890 | 13.48378 | 35090 ft | 494 kts | 124° |
| 2026-04-25 22:19 | 49.30897 | 13.56986 | 35074 ft | 494 kts | 124° |
| 2026-04-25 22:20 | 49.26902 | 13.65574 | 35067 ft | 494 kts | 124° |
| 2026-04-25 22:20 | 49.22912 | 13.74122 | 35074 ft | 494 kts | 124° |
| 2026-04-25 22:21 | 49.18937 | 13.82611 | 35072 ft | 493 kts | 124° |
| 2026-04-25 22:21 | 49.14933 | 13.91135 | 35075 ft | 494 kts | 125° |
| 2026-04-25 22:22 | 49.10912 | 13.99669 | 34881 ft | 498 kts | 125° |
| 2026-04-25 22:22 | 49.08890 | 14.03949 | 34649 ft | 493 kts | 125° |
| 2026-04-25 22:22 | 49.06899 | 14.08157 | 34326 ft | 486 kts | 125° |
| 2026-04-25 22:22 | 49.04910 | 14.12354 | 33546 ft | 490 kts | 125° |
| 2026-04-25 22:23 | 49.02914 | 14.16562 | 32910 ft | 490 kts | 125° |
| 2026-04-25 22:23 | 49.00916 | 14.20766 | 32243 ft | 491 kts | 125° |
| 2026-04-25 22:23 | 48.98909 | 14.24984 | 31570 ft | 491 kts | 125° |
| 2026-04-25 22:23 | 48.96899 | 14.29202 | 30890 ft | 492 kts | 125° |
| 2026-04-25 22:24 | 48.94890 | 14.33409 | 30407 ft | 489 kts | 125° |
| 2026-04-25 22:24 | 48.92865 | 14.37556 | 29865 ft | 486 kts | 126° |
| 2026-04-25 22:24 | 48.90817 | 14.41625 | 29314 ft | 482 kts | 127° |
| 2026-04-25 22:24 | 48.88778 | 14.45631 | 28822 ft | 477 kts | 127° |
| 2026-04-25 22:25 | 48.86758 | 14.49592 | 28334 ft | 472 kts | 127° |
| 2026-04-25 22:25 | 48.84758 | 14.53524 | 27836 ft | 468 kts | 127° |
| 2026-04-25 22:25 | 48.82781 | 14.57419 | 27348 ft | 462 kts | 127° |
| 2026-04-25 22:25 | 48.80843 | 14.61240 | 26848 ft | 452 kts | 127° |
| 2026-04-25 22:26 | 48.78969 | 14.64933 | 26395 ft | 441 kts | 127° |
| 2026-04-25 22:26 | 48.77119 | 14.68578 | 25931 ft | 431 kts | 127° |
| 2026-04-25 22:26 | 48.75305 | 14.72147 | 25481 ft | 422 kts | 127° |
| 2026-04-25 22:26 | 48.73529 | 14.75632 | 25055 ft | 415 kts | 127° |
| 2026-04-25 22:27 | 48.71766 | 14.79086 | 24635 ft | 413 kts | 127° |
| 2026-04-25 22:27 | 48.70007 | 14.82520 | 24215 ft | 412 kts | 127° |
| 2026-04-25 22:27 | 48.68247 | 14.85949 | 23787 ft | 412 kts | 127° |
| 2026-04-25 22:27 | 48.66489 | 14.89371 | 23294 ft | 412 kts | 127° |
| 2026-04-25 22:28 | 48.64743 | 14.92767 | 22798 ft | 407 kts | 127° |
| 2026-04-25 22:28 | 48.63022 | 14.96112 | 22348 ft | 400 kts | 127° |
| 2026-04-25 22:28 | 48.61318 | 14.99418 | 21919 ft | 394 kts | 128° |
| 2026-04-25 22:28 | 48.59647 | 15.02675 | 21508 ft | 389 kts | 125° |
| 2026-04-25 22:29 | 48.58434 | 15.06267 | 21079 ft | 382 kts | 103° |
| 2026-04-25 22:29 | 48.57781 | 15.10115 | 20712 ft | 377 kts | 102° |
| 2026-04-25 22:29 | 48.57152 | 15.13964 | 20280 ft | 376 kts | 102° |
| 2026-04-25 22:30 | 48.55887 | 15.21551 | 19461 ft | 374 kts | 102° |
| 2026-04-25 22:30 | 48.55238 | 15.25349 | 19054 ft | 373 kts | 103° |
| 2026-04-25 22:30 | 48.54586 | 15.29129 | 18654 ft | 372 kts | 103° |
| 2026-04-25 22:30 | 48.54144 | 15.31678 | 18389 ft | 372 kts | 103° |
| 2026-04-25 22:31 | 48.53261 | 15.36667 | 17856 ft | 369 kts | 104° |
| 2026-04-25 22:31 | 48.52536 | 15.40332 | 17586 ft | 363 kts | 105° |
| 2026-04-25 22:31 | 48.51787 | 15.43964 | 17201 ft | 362 kts | 106° |
| 2026-04-25 22:31 | 48.51033 | 15.47596 | 16811 ft | 363 kts | 106° |
| 2026-04-25 22:32 | 48.50276 | 15.51247 | 16423 ft | 366 kts | 106° |
| 2026-04-25 22:32 | 48.49519 | 15.54921 | 16060 ft | 366 kts | 106° |
| 2026-04-25 22:32 | 48.48773 | 15.58550 | 16013 ft | 359 kts | 106° |
| 2026-04-25 22:32 | 48.48037 | 15.62137 | 16014 ft | 358 kts | 105° |
| 2026-04-25 22:33 | 48.47301 | 15.65732 | 16017 ft | 360 kts | 106° |
| 2026-04-25 22:33 | 48.46561 | 15.69340 | 16006 ft | 359 kts | 106° |
| 2026-04-25 22:33 | 48.45827 | 15.72914 | 15823 ft | 356 kts | 106° |
| 2026-04-25 22:33 | 48.45096 | 15.76472 | 15572 ft | 355 kts | 106° |
| 2026-04-25 22:34 | 48.44364 | 15.80028 | 15322 ft | 354 kts | 106° |
| 2026-04-25 22:34 | 48.43643 | 15.83524 | 15084 ft | 355 kts | 106° |
| 2026-04-25 22:34 | 48.42906 | 15.87092 | 14849 ft | 357 kts | 106° |
| 2026-04-25 22:34 | 48.42167 | 15.90661 | 14607 ft | 356 kts | 106° |
| 2026-04-25 22:35 | 48.41431 | 15.94212 | 14370 ft | 355 kts | 106° |
| 2026-04-25 22:35 | 48.40694 | 15.97761 | 14120 ft | 354 kts | 106° |
| 2026-04-25 22:35 | 48.39960 | 16.01289 | 13877 ft | 353 kts | 106° |
| 2026-04-25 22:35 | 48.39225 | 16.04811 | 13626 ft | 352 kts | 106° |
| 2026-04-25 22:36 | 48.38492 | 16.08324 | 13362 ft | 351 kts | 106° |
| 2026-04-25 22:36 | 48.37758 | 16.11834 | 13094 ft | 351 kts | 106° |
| 2026-04-25 22:36 | 48.37028 | 16.15320 | 12846 ft | 350 kts | 106° |
| 2026-04-25 22:36 | 48.36296 | 16.18807 | 12587 ft | 348 kts | 106° |
| 2026-04-25 22:37 | 48.35570 | 16.22260 | 12315 ft | 343 kts | 106° |
| 2026-04-25 22:37 | 48.34857 | 16.25643 | 12050 ft | 336 kts | 107° |
| 2026-04-25 22:37 | 48.34154 | 16.28977 | 11800 ft | 333 kts | 106° |
| 2026-04-25 22:37 | 48.33457 | 16.32274 | 11539 ft | 329 kts | 106° |
| 2026-04-25 22:38 | 48.32767 | 16.35538 | 11289 ft | 325 kts | 106° |
| 2026-04-25 22:38 | 48.32094 | 16.38718 | 11050 ft | 323 kts | 107° |
| 2026-04-25 22:38 | 48.31414 | 16.41925 | 10797 ft | 320 kts | 107° |
| 2026-04-25 22:38 | 48.30740 | 16.45089 | 10550 ft | 317 kts | 107° |
| 2026-04-25 22:39 | 48.30067 | 16.48230 | 10307 ft | 315 kts | 108° |
| 2026-04-25 22:39 | 48.29146 | 16.51197 | 10061 ft | 313 kts | 122° |
| 2026-04-25 22:39 | 48.27872 | 16.53821 | 9832 ft | 308 kts | 129° |
| 2026-04-25 22:39 | 48.26539 | 16.56309 | 9612 ft | 304 kts | 130° |
| 2026-04-25 22:40 | 48.25219 | 16.58749 | 9458 ft | 297 kts | 130° |
| 2026-04-25 22:40 | 48.23933 | 16.61132 | 9313 ft | 290 kts | 130° |
| 2026-04-25 22:40 | 48.22679 | 16.63464 | 9167 ft | 284 kts | 130° |
| 2026-04-25 22:40 | 48.21457 | 16.65746 | 9035 ft | 278 kts | 130° |
| 2026-04-25 22:41 | 48.20254 | 16.67997 | 8887 ft | 274 kts | 130° |
| 2026-04-25 22:41 | 48.19068 | 16.70217 | 8766 ft | 273 kts | 130° |
| 2026-04-25 22:41 | 48.17884 | 16.72432 | 8634 ft | 272 kts | 130° |
| 2026-04-25 22:41 | 48.16707 | 16.74636 | 8504 ft | 270 kts | 129° |
| 2026-04-25 22:42 | 48.15534 | 16.76834 | 8378 ft | 270 kts | 129° |
| 2026-04-25 22:42 | 48.14365 | 16.79020 | 8249 ft | 269 kts | 129° |
| 2026-04-25 22:42 | 48.13195 | 16.81205 | 8125 ft | 269 kts | 130° |
| 2026-04-25 22:42 | 48.12026 | 16.83385 | 8002 ft | 269 kts | 130° |
| 2026-04-25 22:43 | 48.10875 | 16.85597 | 7864 ft | 270 kts | 124° |
| 2026-04-25 22:43 | 48.09967 | 16.88023 | 7705 ft | 271 kts | 116° |
| 2026-04-25 22:43 | 48.09143 | 16.90580 | 7562 ft | 272 kts | 115° |
| 2026-04-25 22:43 | 48.08327 | 16.93150 | 7412 ft | 273 kts | 115° |
| 2026-04-25 22:44 | 48.07503 | 16.95714 | 7265 ft | 274 kts | 115° |
| 2026-04-25 22:44 | 48.06671 | 16.98268 | 7114 ft | 271 kts | 116° |
| 2026-04-25 22:44 | 48.05843 | 17.00782 | 6956 ft | 267 kts | 116° |
| 2026-04-25 22:44 | 48.05026 | 17.03247 | 6800 ft | 262 kts | 116° |
| 2026-04-25 22:45 | 48.04220 | 17.05670 | 6647 ft | 259 kts | 116° |
| 2026-04-25 22:45 | 48.03420 | 17.08066 | 6499 ft | 257 kts | 116° |
| 2026-04-25 22:45 | 48.02624 | 17.10446 | 6351 ft | 255 kts | 116° |
| 2026-04-25 22:45 | 48.01828 | 17.12818 | 6197 ft | 254 kts | 116° |
| 2026-04-25 22:46 | 48.00918 | 17.15062 | 6011 ft | 253 kts | 134° |
| 2026-04-25 22:46 | 48.00001 | 17.16112 | 5902 ft | 250 kts | 156° |
| 2026-04-25 22:46 | 47.97809 | 17.16536 | 5695 ft | 238 kts | 198° |
| 2026-04-25 22:46 | 47.96250 | 17.15803 | 5587 ft | 236 kts | 204° |
| 2026-04-25 22:47 | 47.94809 | 17.14687 | 5395 ft | 232 kts | 229° |
| 2026-04-25 22:47 | 47.93976 | 17.12729 | 5270 ft | 221 kts | 259° |
| 2026-04-25 22:47 | 47.93783 | 17.11221 | 5183 ft | 217 kts | 273° |
| 2026-04-25 22:47 | 47.94190 | 17.09133 | 5019 ft | 210 kts | 303° |
| 2026-04-25 22:48 | 47.94915 | 17.07264 | 4901 ft | 212 kts | 299° |
| 2026-04-25 22:48 | 47.95575 | 17.05281 | 4755 ft | 213 kts | 298° |
| 2026-04-25 22:48 | 47.96212 | 17.03307 | 4587 ft | 209 kts | 297° |
| 2026-04-25 22:48 | 47.96834 | 17.01363 | 4431 ft | 205 kts | 297° |
| 2026-04-25 22:49 | 47.97443 | 16.99456 | 4294 ft | 202 kts | 297° |
| 2026-04-25 22:49 | 47.98046 | 16.97571 | 4222 ft | 200 kts | 297° |
| 2026-04-25 22:49 | 47.98649 | 16.95687 | 4155 ft | 202 kts | 298° |
| 2026-04-25 22:49 | 47.99257 | 16.93785 | 4084 ft | 203 kts | 298° |
| 2026-04-25 22:50 | 47.99867 | 16.91880 | 4016 ft | 204 kts | 298° |
| 2026-04-25 22:50 | 48.00479 | 16.89970 | 3955 ft | 204 kts | 298° |
| 2026-04-25 22:50 | 48.01094 | 16.88052 | 3891 ft | 205 kts | 298° |
| 2026-04-25 22:50 | 48.01702 | 16.86153 | 3856 ft | 199 kts | 298° |
| 2026-04-25 22:51 | 48.02277 | 16.84357 | 3797 ft | 184 kts | 298° |
| 2026-04-25 22:51 | 48.02803 | 16.82719 | 3722 ft | 170 kts | 298° |
| 2026-04-25 22:51 | 48.03296 | 16.81183 | 3657 ft | 158 kts | 298° |
| 2026-04-25 22:51 | 48.03748 | 16.79774 | 3625 ft | 147 kts | 298° |
| 2026-04-25 22:52 | 48.04195 | 16.78390 | 3558 ft | 149 kts | 298° |
| 2026-04-25 22:52 | 48.04645 | 16.76992 | 3382 ft | 148 kts | 298° |
| 2026-04-25 22:52 | 48.05087 | 16.75617 | 3192 ft | 145 kts | 298° |
| 2026-04-25 22:52 | 48.05519 | 16.74277 | 3008 ft | 142 kts | 298° |
| 2026-04-25 22:53 | 48.05949 | 16.72940 | 2820 ft | 144 kts | 298° |
| 2026-04-25 22:53 | 48.06383 | 16.71593 | 2631 ft | 143 kts | 298° |
| 2026-04-25 22:53 | 48.06811 | 16.70265 | 2441 ft | 140 kts | 299° |
| 2026-04-25 22:53 | 48.07229 | 16.68967 | 2253 ft | 136 kts | 298° |
| 2026-04-25 22:54 | 48.07632 | 16.67720 | 2088 ft | 130 kts | 296° |
| 2026-04-25 22:54 | 48.08019 | 16.66517 | 1904 ft | 130 kts | 296° |
| 2026-04-25 22:54 | 48.08420 | 16.65283 | 1764 ft | 133 kts | 297° |
| 2026-04-25 22:54 | 48.08829 | 16.63989 | 1542 ft | 137 kts | 298° |
| 2026-04-25 22:55 | 48.09250 | 16.62709 | 1356 ft | 137 kts | 297° |
| 2026-04-25 22:55 | 48.09664 | 16.61426 | 1169 ft | 141 kts | 297° |
| 2026-04-25 22:55 | 48.10103 | 16.60090 | 1032 ft | 146 kts | 294° |
| 2026-04-25 22:55 | 48.10542 | 16.58688 | 803 ft | 151 kts | 295° |
| 2026-04-25 22:56 | 48.11003 | 16.57261 | 628 ft | 151 kts | 295° |
| 2026-04-25 22:56 | 48.11417 | 16.55986 | 613 ft | 116 kts | 296° |
| 2026-04-25 22:56 | 48.11704 | 16.55107 | 615 ft | 72 kts | 296° |
| 2026-04-25 22:56 | 48.11876 | 16.54582 | 615 ft | 50 kts | 296° |
| 2026-04-25 22:57 | 48.12015 | 16.54151 | 614 ft | 35 kts | 295° |
| 2026-04-25 22:57 | 48.12097 | 16.53989 | 608 ft | 14 kts | 334° |
| 2026-04-25 22:57 | 48.12188 | 16.53999 | 611 ft | 13 kts | 30° |
| 2026-04-25 22:57 | 48.12226 | 16.54077 | 611 ft | 7 kts | 74° |
| 2026-04-25 22:58 | 48.12225 | 16.54152 | 611 ft | 7 kts | 107° |
| 2026-04-25 22:58 | 48.12205 | 16.54220 | 615 ft | 7 kts | 115° |
| 2026-04-25 22:58 | 48.12184 | 16.54285 | 610 ft | 7 kts | 116° |
| 2026-04-25 22:58 | 48.12163 | 16.54349 | 620 ft | 7 kts | 116° |
| 2026-04-25 22:59 | 48.12142 | 16.54413 | 612 ft | 7 kts | 117° |
| 2026-04-25 22:59 | 48.12120 | 16.54476 | 610 ft | 7 kts | 116° |
| 2026-04-25 22:59 | 48.12099 | 16.54541 | 620 ft | 7 kts | 116° |
| 2026-04-25 22:59 | 48.12078 | 16.54607 | 608 ft | 8 kts | 116° |
| 2026-04-25 23:00 | 48.12050 | 16.54694 | 608 ft | 11 kts | 116° |
| 2026-04-25 23:00 | 48.12016 | 16.54796 | 619 ft | 11 kts | 116° |
| 2026-04-25 23:00 | 48.11986 | 16.54890 | 610 ft | 10 kts | 115° |
| 2026-04-25 23:00 | 48.11958 | 16.54978 | 616 ft | 9 kts | 115° |
| 2026-04-25 23:01 | 48.11930 | 16.55064 | 608 ft | 9 kts | 115° |
| 2026-04-25 23:01 | 48.11900 | 16.55156 | 612 ft | 10 kts | 116° |
| 2026-04-25 23:01 | 48.11867 | 16.55255 | 614 ft | 11 kts | 116° |
| 2026-04-25 23:01 | 48.11834 | 16.55360 | 611 ft | 9 kts | 106° |
| 2026-04-25 23:02 | 48.11856 | 16.55425 | 615 ft | 7 kts | 22° |
| 2026-04-25 23:02 | 48.11901 | 16.55436 | 608 ft | 7 kts | 8° |
| 2026-04-25 23:02 | 48.11942 | 16.55457 | 608 ft | 6 kts | 24° |
| 2026-04-25 23:02 | 48.11979 | 16.55483 | 608 ft | 6 kts | 25° |
| 2026-04-25 23:03 | 48.12015 | 16.55509 | 612 ft | 6 kts | 26° |
| 2026-04-25 23:03 | 48.12047 | 16.55533 | 608 ft | 3 kts | 24° |
| 2026-04-25 23:03 | 48.12067 | 16.55523 | 608 ft | 3 kts | 311° |
| 2026-04-25 23:03 | 48.12079 | 16.55494 | 608 ft | 3 kts | 297° |
| 2026-04-25 23:04 | 48.12084 | 16.55478 | 618 ft | 1 kts | 296° |
| 2026-04-25 23:04 | 48.12085 | 16.55475 | 617 ft | 0 kts | 296° |